createdAt,value
2018-08-19T00:01:32.048Z,8.33
2018-08-19T00:04:00.915Z,8.70
2018-08-19T00:06:29.776Z,7.43
2018-08-19T00:09:02.664Z,10.13
2018-08-19T00:11:31.463Z,7.13
2018-08-19T00:14:00.292Z,8.07
2018-08-19T00:16:29.160Z,8.10
2018-08-19T00:18:57.913Z,7.90
2018-08-19T00:21:26.761Z,14.27
2018-08-19T00:23:55.544Z,6.97
2018-08-19T00:26:24.405Z,9.90
2018-08-19T00:28:53.192Z,8.87
2018-08-19T00:31:21.972Z,11.27
2018-08-19T00:33:50.772Z,7.47
2018-08-19T00:36:28.732Z,8.77
2018-08-19T00:38:57.645Z,9.73
2018-08-19T00:41:26.785Z,7.63
2018-08-19T00:43:55.623Z,7.73
2018-08-19T00:46:29.580Z,8.03
2018-08-19T00:48:59.190Z,8.10
2018-08-19T00:51:28.182Z,7.73
2018-08-19T00:53:57.385Z,8.10
2018-08-19T00:56:26.188Z,6.70
2018-08-19T00:58:54.961Z,10.13
2018-08-19T01:01:32.789Z,9.73
2018-08-19T01:04:01.732Z,8.70
2018-08-19T01:06:33.713Z,10.90
2018-08-19T01:09:02.549Z,8.07
2018-08-19T01:11:34.363Z,8.60
2018-08-19T01:14:06.352Z,8.70
2018-08-19T01:16:35.157Z,9.53
2018-08-19T01:19:03.961Z,8.20
2018-08-19T01:21:33.609Z,8.53
2018-08-19T01:24:05.072Z,8.90
2018-08-19T01:26:36.293Z,7.23
2018-08-19T01:29:06.136Z,8.43
2018-08-19T01:31:34.984Z,9.57
2018-08-19T01:34:13.886Z,8.17
2018-08-19T01:36:42.772Z,7.90
2018-08-19T01:39:12.872Z,7.30
2018-08-19T01:41:42.395Z,7.10
2018-08-19T01:44:14.636Z,7.73
2018-08-19T01:46:48.377Z,9.37
2018-08-19T01:49:17.125Z,10.33
2018-08-19T01:51:46.196Z,7.93
2018-08-19T01:54:20.749Z,9.30
2018-08-19T01:56:52.680Z,8.13
2018-08-19T01:59:21.620Z,7.03
2018-08-19T02:01:57.265Z,8.97
2018-08-19T02:04:26.057Z,7.63
2018-08-19T02:06:54.931Z,9.43
2018-08-19T02:09:23.932Z,6.47
2018-08-19T02:11:58.578Z,8.70
2018-08-19T02:14:27.594Z,7.87
2018-08-19T02:16:57.120Z,7.00
2018-08-19T02:19:25.869Z,8.17
2018-08-19T02:21:54.785Z,6.27
2018-08-19T02:24:23.574Z,6.60
2018-08-19T02:26:52.360Z,7.50
2018-08-19T02:29:34.404Z,13.00
2018-08-19T02:32:04.896Z,6.67
2018-08-19T02:34:37.976Z,7.60
2018-08-19T02:37:11.504Z,7.47
2018-08-19T02:39:43.332Z,8.10
2018-08-19T02:42:22.149Z,8.90
2018-08-19T02:44:52.517Z,8.03
2018-08-19T02:47:21.375Z,8.43
2018-08-19T02:49:50.119Z,8.10
2018-08-19T02:52:24.032Z,9.67
2018-08-19T02:54:52.771Z,8.60
2018-08-19T02:57:21.553Z,6.93
2018-08-19T02:59:50.331Z,7.17
2018-08-19T03:02:28.908Z,7.70
2018-08-19T03:04:58.456Z,7.53
2018-08-19T03:07:29.321Z,9.97
2018-08-19T03:10:02.357Z,9.37
2018-08-19T03:12:31.198Z,11.00
2018-08-19T03:14:59.944Z,9.77
2018-08-19T03:17:29.704Z,10.57
2018-08-19T03:19:59.403Z,11.07
2018-08-19T03:22:28.789Z,10.63
2018-08-19T03:24:59.389Z,9.73
2018-08-19T03:27:28.177Z,8.47
2018-08-19T03:29:58.326Z,12.83
2018-08-19T03:32:27.176Z,12.77
2018-08-19T03:35:07.866Z,9.50
2018-08-19T03:37:37.600Z,11.87
2018-08-19T03:40:06.911Z,9.80
2018-08-19T03:42:35.666Z,10.20
2018-08-19T03:45:22.336Z,9.20
2018-08-19T03:47:52.296Z,8.93
2018-08-19T03:50:27.161Z,9.30
2018-08-19T03:52:56.844Z,9.27
2018-08-19T03:55:32.578Z,8.67
2018-08-19T03:58:08.864Z,8.90
2018-08-19T04:00:42.255Z,8.90
2018-08-19T04:03:18.259Z,7.00
2018-08-19T04:05:52.381Z,7.80
2018-08-19T04:08:21.150Z,6.90
2018-08-19T04:10:50.229Z,8.77
2018-08-19T04:13:37.769Z,6.63
2018-08-19T04:16:07.848Z,8.57
2018-08-19T04:18:37.800Z,8.43
2018-08-19T04:21:09.564Z,7.50
2018-08-19T04:23:40.470Z,8.13
2018-08-19T04:26:09.227Z,8.00
2018-08-19T04:28:43.149Z,7.50
2018-08-19T04:31:17.104Z,6.47
2018-08-19T04:33:48.156Z,8.30
2018-08-19T04:36:19.055Z,8.33
2018-08-19T04:38:48.629Z,6.67
2018-08-19T04:41:17.553Z,10.43
2018-08-19T04:43:47.168Z,7.73
2018-08-19T04:46:15.916Z,9.53
2018-08-19T04:48:48.528Z,10.30
2018-08-19T04:51:17.308Z,7.63
2018-08-19T04:53:46.163Z,8.83
2018-08-19T04:56:14.932Z,8.60
2018-08-19T04:58:43.690Z,10.37
2018-08-19T05:01:13.436Z,8.93
2018-08-19T05:03:44.517Z,9.43
2018-08-19T05:06:13.301Z,11.23
2018-08-19T05:08:42.119Z,8.00
2018-08-19T05:11:10.956Z,10.23
2018-08-19T05:13:39.690Z,10.37
2018-08-19T05:16:08.508Z,11.20
2018-08-19T05:18:37.283Z,11.87
2018-08-19T05:21:11.332Z,9.33
2018-08-19T05:23:40.076Z,11.50
2018-08-19T05:26:08.996Z,10.00
2018-08-19T05:28:37.732Z,9.30
2018-08-19T05:31:06.612Z,10.77
2018-08-19T05:33:35.373Z,10.37
2018-08-19T05:36:04.211Z,15.43
2018-08-19T05:38:33.590Z,9.93
2018-08-19T05:41:02.912Z,9.50
2018-08-19T05:43:31.909Z,11.67
2018-08-19T05:46:07.080Z,9.87
2018-08-19T05:48:35.890Z,11.17
2018-08-19T05:51:04.688Z,14.80
2018-08-19T05:53:34.551Z,13.27
2018-08-19T05:56:03.335Z,9.67
2018-08-19T05:58:32.124Z,11.57
2018-08-19T06:01:01.617Z,10.20
2018-08-19T06:03:30.606Z,14.93
2018-08-19T06:05:59.720Z,10.97
2018-08-19T06:08:34.823Z,10.83
2018-08-19T06:11:03.612Z,9.23
2018-08-19T06:13:32.363Z,8.67
2018-08-19T06:16:01.208Z,9.27
2018-08-19T06:18:30.063Z,10.27
2018-08-19T06:20:58.836Z,10.53
2018-08-19T06:23:27.593Z,11.00
2018-08-19T06:25:56.317Z,9.67
2018-08-19T06:28:25.103Z,10.00
2018-08-19T06:30:53.858Z,12.83
2018-08-19T06:33:22.648Z,13.73
2018-08-19T06:35:51.400Z,14.50
2018-08-19T06:38:20.156Z,11.13
2018-08-19T06:40:49.256Z,12.43
2018-08-19T06:43:18.086Z,11.73
2018-08-19T06:45:46.771Z,13.07
2018-08-19T06:48:15.601Z,10.93
2018-08-19T06:50:44.371Z,12.17
2018-08-19T06:53:18.413Z,11.00
2018-08-19T06:55:47.290Z,11.60
2018-08-19T06:58:16.109Z,8.27
2018-08-19T07:00:46.133Z,8.87
2018-08-19T07:03:14.956Z,12.70
2018-08-19T07:05:44.009Z,7.43
2018-08-19T07:08:12.856Z,9.03
2018-08-19T07:10:42.177Z,8.47
2018-08-19T07:13:12.660Z,9.37
2018-08-19T07:15:43.257Z,9.57
2018-08-19T07:18:14.017Z,9.53
2018-08-19T07:20:43.615Z,10.40
2018-08-19T07:23:13.018Z,9.63
2018-08-19T07:25:44.160Z,7.63
2018-08-19T07:28:14.366Z,8.30
2018-08-19T07:30:43.613Z,9.53
2018-08-19T07:33:13.066Z,7.80
2018-08-19T07:35:42.226Z,8.27
2018-08-19T07:38:11.472Z,7.00
2018-08-19T07:40:40.492Z,8.37
2018-08-19T07:43:09.907Z,8.80
2018-08-19T07:45:38.660Z,8.00
2018-08-19T07:48:08.036Z,10.13
2018-08-19T07:50:37.658Z,6.63
2018-08-19T07:53:06.489Z,7.13
2018-08-19T07:55:35.434Z,7.33
2018-08-19T07:58:06.401Z,6.60
2018-08-19T08:00:39.142Z,7.67
2018-08-19T08:03:08.076Z,7.23
2018-08-19T08:05:42.129Z,5.57
2018-08-19T08:08:11.100Z,7.27
2018-08-19T08:10:40.177Z,6.93
2018-08-19T08:13:10.183Z,6.17
2018-08-19T08:15:45.025Z,6.13
2018-08-19T08:18:14.539Z,10.00
2018-08-19T08:20:43.304Z,5.33
2018-08-19T08:23:21.115Z,6.00
2018-08-19T08:25:50.105Z,6.00
2018-08-19T08:28:18.948Z,5.00
2018-08-19T08:30:47.748Z,7.57
2018-08-19T08:33:16.556Z,6.03
2018-08-19T08:35:52.239Z,5.60
2018-08-19T08:38:21.197Z,7.63
2018-08-19T08:40:50.126Z,4.33
2018-08-19T08:43:19.020Z,9.73
2018-08-19T08:45:47.834Z,4.17
2018-08-19T08:48:16.635Z,4.37
2018-08-19T08:50:45.393Z,5.60
2018-08-19T08:53:14.206Z,5.57
2018-08-19T08:55:42.985Z,4.97
2018-08-19T08:58:11.755Z,5.83
2018-08-19T09:00:40.648Z,6.03
2018-08-19T09:03:09.485Z,7.13
2018-08-19T09:05:38.269Z,7.60
2018-08-19T09:08:07.044Z,5.47
2018-08-19T09:10:35.831Z,6.53
2018-08-19T09:13:04.636Z,5.07
2018-08-19T09:15:33.439Z,5.10
2018-08-19T09:18:02.313Z,6.77
2018-08-19T09:20:31.089Z,4.53
2018-08-19T09:22:59.944Z,4.27
2018-08-19T09:25:28.748Z,5.77
2018-08-19T09:27:57.562Z,5.30
2018-08-19T09:30:36.083Z,5.13
2018-08-19T09:33:05.051Z,5.60
2018-08-19T09:35:35.855Z,4.93
2018-08-19T09:38:10.823Z,5.10
2018-08-19T09:40:39.736Z,4.50
2018-08-19T09:43:09.273Z,4.23
2018-08-19T09:45:38.244Z,5.77
2018-08-19T09:48:07.769Z,4.47
2018-08-19T09:50:37.369Z,5.17
2018-08-19T09:53:06.185Z,5.03
2018-08-19T09:55:41.440Z,4.97
2018-08-19T09:58:14.984Z,5.23
2018-08-19T10:00:49.085Z,4.00
2018-08-19T10:03:18.095Z,4.23
2018-08-19T10:05:46.940Z,4.93
2018-08-19T10:08:15.753Z,5.13
2018-08-19T10:10:44.545Z,6.17
2018-08-19T10:13:15.784Z,4.27
2018-08-19T10:15:44.670Z,7.53
2018-08-19T10:18:13.432Z,5.73
2018-08-19T10:20:42.240Z,5.63
2018-08-19T10:23:11.017Z,4.83
2018-08-19T10:25:39.779Z,4.87
2018-08-19T10:28:08.623Z,4.77
2018-08-19T10:30:44.512Z,5.73
2018-08-19T10:33:13.476Z,5.00
2018-08-19T10:35:42.267Z,6.30
2018-08-19T10:38:11.084Z,4.77
2018-08-19T10:40:39.859Z,4.53
2018-08-19T10:43:09.856Z,5.90
2018-08-19T10:45:41.744Z,4.50
2018-08-19T10:48:13.528Z,4.40
2018-08-19T10:50:42.329Z,6.07
2018-08-19T10:53:17.031Z,4.67
2018-08-19T10:55:46.935Z,3.63
2018-08-19T10:58:15.781Z,3.83
2018-08-19T11:00:44.553Z,4.50
2018-08-19T11:03:20.090Z,4.30
2018-08-19T11:05:51.595Z,4.60
2018-08-19T11:08:20.357Z,4.70
2018-08-19T11:10:49.236Z,4.37
2018-08-19T11:13:23.467Z,5.07
2018-08-19T11:15:54.324Z,5.37
2018-08-19T11:18:36.756Z,5.47
2018-08-19T11:21:09.083Z,4.27
2018-08-19T11:23:38.916Z,4.17
2018-08-19T11:26:08.356Z,5.77
2018-08-19T11:28:40.164Z,6.43
2018-08-19T11:31:16.137Z,4.43
2018-08-19T11:33:45.011Z,5.10
2018-08-19T11:36:13.788Z,4.40
2018-08-19T11:38:43.295Z,5.00
2018-08-19T11:41:12.641Z,6.80
2018-08-19T11:43:44.778Z,4.20
2018-08-19T11:46:13.756Z,4.40
2018-08-19T11:48:43.005Z,6.60
2018-08-19T11:51:11.972Z,5.40
2018-08-19T11:53:40.773Z,5.33
2018-08-19T11:56:09.577Z,6.50
2018-08-19T11:58:45.469Z,4.63
2018-08-19T12:01:15.976Z,4.40
2018-08-19T12:03:56.988Z,6.53
2018-08-19T12:06:27.220Z,4.33
2018-08-19T12:08:57.240Z,4.50
2018-08-19T12:11:30.664Z,4.73
2018-08-19T12:14:00.792Z,4.57
2018-08-19T12:16:29.540Z,3.80
2018-08-19T12:19:05.591Z,4.40
2018-08-19T12:21:38.478Z,5.57
2018-08-19T12:24:17.070Z,3.83
2018-08-19T12:26:45.836Z,4.37
2018-08-19T12:29:14.584Z,5.13
2018-08-19T12:31:43.328Z,4.63
2018-08-19T12:34:12.127Z,4.40
2018-08-19T12:36:40.884Z,9.00
2018-08-19T12:39:10.425Z,4.80
2018-08-19T12:41:45.192Z,5.07
2018-08-19T12:44:14.004Z,6.57
2018-08-19T12:46:52.640Z,5.83
2018-08-19T12:49:21.448Z,4.33
2018-08-19T12:51:50.202Z,5.80
2018-08-19T12:54:18.965Z,4.40
2018-08-19T12:56:48.356Z,5.30
2018-08-19T12:59:17.140Z,4.80
2018-08-19T13:01:45.980Z,4.87
2018-08-19T13:04:14.962Z,4.17
2018-08-19T13:07:16.354Z,4.53
2018-08-19T13:09:51.160Z,4.20
2018-08-19T13:12:20.479Z,4.43
2018-08-19T13:14:49.659Z,5.60
2018-08-19T13:17:18.473Z,5.20
2018-08-19T13:19:53.264Z,6.27
2018-08-19T13:22:22.047Z,4.50
2018-08-19T13:24:50.849Z,4.10
2018-08-19T13:27:19.636Z,4.47
2018-08-19T13:29:48.547Z,5.77
2018-08-19T13:32:17.509Z,4.40
2018-08-19T13:34:46.273Z,4.53
2018-08-19T13:37:15.112Z,6.87
2018-08-19T13:39:43.954Z,4.10
2018-08-19T13:42:12.820Z,3.60
2018-08-19T13:44:41.608Z,3.77
2018-08-19T13:47:10.399Z,4.27
2018-08-19T13:49:39.316Z,4.27
2018-08-19T13:52:08.136Z,4.30
2018-08-19T13:54:49.496Z,3.50
2018-08-19T13:57:18.263Z,4.43
2018-08-19T13:59:47.133Z,4.27
2018-08-19T14:02:15.917Z,4.53
2018-08-19T14:04:44.716Z,4.97
2018-08-19T14:07:13.544Z,4.47
2018-08-19T14:09:42.381Z,4.00
2018-08-19T14:12:11.245Z,5.73
2018-08-19T14:14:40.049Z,4.20
2018-08-19T14:17:08.829Z,5.13
2018-08-19T14:19:37.656Z,4.30
2018-08-19T14:22:06.530Z,3.80
2018-08-19T14:24:35.350Z,3.53
2018-08-19T14:27:04.328Z,3.80
2018-08-19T14:29:33.139Z,4.97
2018-08-19T14:32:02.013Z,4.17
2018-08-19T14:34:30.867Z,3.30
2018-08-19T14:36:59.689Z,3.77
2018-08-19T14:39:28.540Z,4.20
2018-08-19T14:41:57.328Z,3.93
2018-08-19T14:44:26.073Z,3.90
2018-08-19T14:46:54.910Z,4.83
2018-08-19T14:49:23.725Z,4.00
2018-08-19T14:51:58.246Z,4.00
2018-08-19T14:54:27.140Z,4.80
2018-08-19T14:56:56.041Z,3.80
2018-08-19T14:59:24.887Z,4.17
2018-08-19T15:02:03.758Z,5.27
2018-08-19T15:04:32.615Z,4.07
2018-08-19T15:07:01.721Z,3.80
2018-08-19T15:09:31.698Z,8.83
2018-08-19T15:12:15.388Z,5.03
2018-08-19T15:14:44.427Z,3.80
2018-08-19T15:17:14.088Z,3.93
2018-08-19T15:19:46.397Z,4.80
2018-08-19T15:22:15.649Z,5.07
2018-08-19T15:24:44.774Z,4.00
2018-08-19T15:27:13.674Z,3.97
2018-08-19T15:29:45.183Z,3.70
2018-08-19T15:32:14.318Z,4.47
2018-08-19T15:34:42.968Z,4.73
2018-08-19T15:37:11.781Z,6.23
2018-08-19T15:39:40.876Z,4.83
2018-08-19T15:42:09.700Z,4.07
2018-08-19T15:44:38.573Z,4.23
2018-08-19T15:47:07.528Z,5.33
2018-08-19T15:49:36.334Z,5.10
2018-08-19T15:52:05.144Z,5.87
2018-08-19T15:54:33.986Z,3.60
2018-08-19T15:57:04.138Z,4.47
2018-08-19T15:59:35.952Z,3.53
2018-08-19T16:02:04.918Z,3.90
2018-08-19T16:04:33.848Z,4.50
2018-08-19T16:07:02.796Z,4.33
2018-08-19T16:09:31.984Z,5.33
2018-08-19T16:12:00.785Z,6.87
2018-08-19T16:14:31.536Z,4.00
2018-08-19T16:17:01.713Z,4.37
2018-08-19T16:19:30.574Z,4.63
2018-08-19T16:22:00.213Z,3.90
2018-08-19T16:24:29.467Z,4.80
2018-08-19T16:26:58.344Z,6.67
2018-08-19T16:29:27.089Z,5.13
2018-08-19T16:31:55.898Z,4.00
2018-08-19T16:34:24.694Z,4.23
2018-08-19T16:36:53.497Z,4.23
2018-08-19T16:39:22.392Z,3.97
2018-08-19T16:41:51.275Z,4.97
2018-08-19T16:44:20.116Z,4.97
2018-08-19T16:46:48.959Z,4.23
2018-08-19T16:49:18.300Z,4.13
2018-08-19T16:51:47.256Z,4.63
2018-08-19T16:54:16.641Z,3.43
2018-08-19T16:56:45.767Z,4.03
2018-08-19T16:59:14.607Z,4.80
2018-08-19T17:01:43.528Z,5.70
2018-08-19T17:04:12.356Z,5.40
2018-08-19T17:06:41.135Z,5.07
2018-08-19T17:09:10.272Z,7.13
2018-08-19T17:11:39.114Z,3.47
2018-08-19T17:14:08.024Z,4.90
2018-08-19T17:16:36.879Z,4.93
2018-08-19T17:19:05.662Z,4.63
2018-08-19T17:21:34.501Z,4.43
2018-08-19T17:24:03.437Z,4.63
2018-08-19T17:26:32.360Z,4.10
2018-08-19T17:29:20.048Z,3.70
2018-08-19T17:31:48.859Z,5.37
2018-08-19T17:34:19.648Z,5.07
2018-08-19T17:36:48.610Z,4.27
2018-08-19T17:39:21.104Z,4.00
2018-08-19T17:41:50.820Z,3.83
2018-08-19T17:44:19.935Z,3.90
2018-08-19T17:46:48.910Z,3.60
2018-08-19T17:49:22.880Z,4.67
2018-08-19T17:51:51.960Z,4.63
2018-08-19T17:54:25.996Z,5.03
2018-08-19T17:56:55.549Z,4.40
2018-08-19T17:59:24.861Z,6.20
2018-08-19T18:01:53.536Z,4.10
2018-08-19T18:04:22.703Z,4.17
2018-08-19T18:06:51.579Z,3.87
2018-08-19T18:09:20.371Z,4.20
2018-08-19T18:11:56.855Z,4.00
2018-08-19T18:14:25.654Z,4.33
2018-08-19T18:16:54.418Z,3.97
2018-08-19T18:19:23.248Z,5.37
2018-08-19T18:21:52.025Z,3.93
2018-08-19T18:24:20.807Z,5.03
2018-08-19T18:26:49.704Z,5.23
2018-08-19T18:29:18.655Z,8.23
2018-08-19T18:31:50.252Z,5.90
2018-08-19T18:34:19.155Z,7.03
2018-08-19T18:37:22.929Z,4.70
2018-08-19T18:39:52.346Z,5.30
2018-08-19T18:42:34.464Z,5.17
2018-08-19T18:45:07.592Z,4.30
2018-08-19T18:47:38.547Z,4.43
2018-08-19T18:50:13.757Z,5.00
2018-08-19T18:52:46.724Z,4.50
2018-08-19T18:55:15.628Z,4.70
2018-08-19T18:57:51.684Z,5.10
2018-08-19T19:00:22.474Z,4.87
2018-08-19T19:02:55.384Z,5.00
2018-08-19T19:05:33.664Z,5.20
2018-08-19T19:08:08.163Z,3.40
2018-08-19T19:10:37.762Z,4.23
2018-08-19T19:13:06.943Z,4.40
2018-08-19T19:15:39.919Z,4.23
2018-08-19T19:18:11.527Z,4.53
2018-08-19T19:20:49.661Z,4.63
2018-08-19T19:23:19.045Z,4.27
2018-08-19T19:25:48.245Z,5.00
2018-08-19T19:28:16.990Z,5.03
2018-08-19T19:30:45.800Z,3.40
2018-08-19T19:33:14.579Z,4.17
2018-08-19T19:35:43.448Z,4.07
2018-08-19T19:38:12.226Z,6.40
2018-08-19T19:40:41.038Z,5.67
2018-08-19T19:43:09.805Z,4.67
2018-08-19T19:45:43.827Z,4.43
2018-08-19T19:48:12.714Z,5.00
2018-08-19T19:50:41.658Z,6.07
2018-08-19T19:53:10.468Z,4.97
2018-08-19T19:55:39.329Z,4.70
2018-08-19T19:58:08.185Z,5.23
2018-08-19T20:00:51.081Z,4.50
2018-08-19T20:03:20.614Z,4.60
2018-08-19T20:05:49.520Z,5.30
2018-08-19T20:08:22.526Z,4.63
2018-08-19T20:10:51.341Z,4.70
2018-08-19T20:13:20.146Z,5.47
2018-08-19T20:15:49.766Z,5.10
2018-08-19T20:18:19.957Z,6.37
2018-08-19T20:20:48.823Z,6.70
2018-08-19T20:23:23.884Z,4.33
2018-08-19T20:25:53.596Z,5.13
2018-08-19T20:28:22.594Z,4.43
2018-08-19T20:30:51.565Z,4.80
2018-08-19T20:33:25.552Z,5.73
2018-08-19T20:35:55.272Z,4.80
2018-08-19T20:38:24.652Z,4.63
2018-08-19T20:40:54.107Z,4.57
2018-08-19T20:43:24.202Z,6.33
2018-08-19T20:45:53.080Z,8.57
2018-08-19T20:48:22.702Z,4.70
2018-08-19T20:50:51.769Z,5.17
2018-08-19T20:53:20.801Z,5.53
2018-08-19T20:55:49.639Z,5.37
2018-08-19T20:58:20.322Z,5.00
2018-08-19T21:00:49.342Z,5.10
2018-08-19T21:03:18.282Z,5.50
2018-08-19T21:05:47.179Z,5.60
2018-08-19T21:08:17.483Z,5.13
2018-08-19T21:10:47.379Z,5.33
2018-08-19T21:13:19.295Z,4.27
2018-08-19T21:15:49.860Z,5.63
2018-08-19T21:18:18.791Z,6.40
2018-08-19T21:20:47.934Z,5.27
2018-08-19T21:23:17.486Z,6.00
2018-08-19T21:25:51.968Z,4.80
2018-08-19T21:28:21.328Z,5.47
2018-08-19T21:30:50.277Z,4.60
2018-08-19T21:33:19.297Z,5.43
2018-08-19T21:35:50.108Z,3.97
2018-08-19T21:38:19.464Z,6.53
2018-08-19T21:40:48.269Z,5.67
2018-08-19T21:43:17.153Z,6.30
2018-08-19T21:45:46.012Z,7.07
2018-08-19T21:48:16.252Z,4.57
2018-08-19T21:50:45.292Z,8.63
2018-08-19T21:53:16.364Z,6.37
2018-08-19T21:55:46.418Z,5.83
2018-08-19T21:58:15.231Z,5.67
2018-08-19T22:00:50.700Z,5.73
2018-08-19T22:03:24.927Z,6.27
2018-08-19T22:05:53.939Z,5.47
2018-08-19T22:08:24.676Z,6.10
2018-08-19T22:10:53.473Z,5.67
2018-08-19T22:13:22.351Z,6.03
2018-08-19T22:15:51.139Z,6.17
2018-08-19T22:18:23.154Z,5.77
2018-08-19T22:21:07.443Z,6.13
2018-08-19T22:23:41.528Z,6.27
2018-08-19T22:26:11.264Z,7.67
2018-08-19T22:28:40.384Z,5.57
2018-08-19T22:31:20.884Z,6.40
2018-08-19T22:33:57.403Z,8.07
2018-08-19T22:36:26.416Z,6.40
2018-08-19T22:38:56.002Z,6.53
2018-08-19T22:41:26.239Z,6.40
2018-08-19T22:43:55.831Z,6.87
2018-08-19T22:46:25.099Z,6.93
2018-08-19T22:48:54.848Z,6.67
2018-08-19T22:51:23.605Z,6.67
2018-08-19T22:53:54.896Z,5.27
2018-08-19T22:56:23.984Z,7.07
2018-08-19T22:58:52.824Z,5.30
2018-08-19T23:01:21.868Z,6.27
2018-08-19T23:03:59.543Z,5.07
2018-08-19T23:06:29.096Z,4.53
2018-08-19T23:08:57.892Z,6.27
2018-08-19T23:11:33.257Z,5.33
2018-08-19T23:14:13.033Z,7.23
2018-08-19T23:16:41.884Z,5.63
2018-08-19T23:19:10.661Z,4.90
2018-08-19T23:21:39.397Z,7.37
2018-08-19T23:24:08.741Z,5.00
2018-08-19T23:26:37.488Z,5.47
2018-08-19T23:29:06.282Z,6.87
2018-08-19T23:31:35.021Z,5.83
2018-08-19T23:34:04.148Z,5.10
2018-08-19T23:36:32.928Z,5.00
2018-08-19T23:39:01.705Z,5.33
2018-08-19T23:41:30.459Z,8.07
2018-08-19T23:43:59.329Z,5.80
2018-08-19T23:46:28.076Z,5.67
2018-08-19T23:48:56.883Z,5.20
2018-08-19T23:51:30.285Z,5.37
2018-08-19T23:54:00.507Z,4.87
2018-08-19T23:56:29.705Z,5.30
2018-08-19T23:58:59.008Z,6.30
